Larkspur — C6BR6 — position and weather

sailwx.info

Track history (hours):
 
Tides and Currents Weather Stations Pressure Air Temp Water Temp Dewpoint Dewpoint Depression Visibility Wind Speed Wind Dir Waves Ship Positions

Larkspur

Operator: Transeuropa Lines

Last reported at 2019-Jul-22 14:28 UTC. Time now 2019-Jul-22 14:41 UTC.
Position N 29°12' W 094°34'.

Length 225 m; draft 7.8 m.

Type: Tanker. MMSI: 311000344.

Date/timePositionNaut miles runAvg speedWind from/ knotsBaromVisibWave heightAir tempDewpointWater temp
2019-Jul-22 14:28N 29°12' W 094°34'0 0.3
2019-Jul-22 13:52N 29°12' W 094°34'0 0.1
2019-Jul-22 13:28N 29°12' W 094°34'0 0.2
2019-Jul-22 12:49N 29°12' W 094°34'0 0.1
2019-Jul-22 11:55N 29°12' W 094°34'0 0.0
2019-Jul-22 10:55N 29°12' W 094°34'0 0.0
2019-Jul-22 10:10N 29°12' W 094°34'0 0.0
2019-Jul-22 08:49N 29°12' W 094°34'0 0.0
2019-Jul-22 08:13N 29°12' W 094°34'0 0.0
2019-Jul-22 07:22N 29°12' W 094°34'0 0.0
2019-Jul-22 05:28N 29°12' W 094°34'0 0.0
2019-Jul-22 04:40N 29°12' W 094°34'0 0.0
2019-Jul-22 03:19N 29°12' W 094°34'0 0.0
2019-Jul-21 23:46N 29°12' W 094°34'0 0.0
2019-Jul-21 22:13N 29°12' W 094°34'0 0.0
2019-Jul-21 21:04N 29°12' W 094°34'0 0.0
2019-Jul-21 20:22N 29°12' W 094°34'0 0.1
2019-Jul-21 19:58N 29°12' W 094°34'0 0.2
2019-Jul-21 19:28N 29°12' W 094°34'0 0.1
2019-Jul-21 18:58N 29°12' W 094°34'0 0.2
2019-Jul-21 18:19N 29°12' W 094°34'0 0.1
2019-Jul-21 17:52N 29°12' W 094°34'0 0.0
2019-Jul-21 17:28N 29°12' W 094°34'0 0.1
2019-Jul-21 16:58N 29°12' W 094°34'0 0.1
2019-Jul-21 16:28N 29°12' W 094°34'0 0.0
2019-Jul-21 15:43N 29°12' W 094°34'0 0.0
2019-Jul-21 15:25N 29°12' W 094°34'0 0.0
2019-Jul-21 14:52N 29°12' W 094°34'0 0.0
2019-Jul-21 14:16N 29°12' W 094°34'0 0.1
2019-Jul-21 13:58N 29°12' W 094°34'0 0.0
2019-Jul-21 13:13N 29°12' W 094°34'0 0.0
2019-Jul-21 11:13N 29°12' W 094°34'0 0.0
2019-Jul-21 10:40N 29°12' W 094°34'0 0.0
2019-Jul-21 10:04N 29°12' W 094°34'0 0.2
2019-Jul-21 09:55N 29°12' W 094°34'0 0.1
2019-Jul-21 09:07N 29°12' W 094°34'0 0.0
2019-Jul-21 08:49N 29°12' W 094°34'0 0.0
2019-Jul-21 07:58N 29°12' W 094°34'0 0.0
2019-Jul-21 07:16N 29°12' W 094°34'0 0.0
2019-Jul-21 06:49N 29°12' W 094°34'0 0.0
2019-Jul-21 05:19N 29°12' W 094°34'0 0.2
2019-Jul-21 04:58N 29°12' W 094°34'3 5.7
2019-Jul-21 04:28N 29°14' W 094°32'7 9.8
2019-Jul-21 03:44N 29°10' W 094°25'57012.0
2019-Jul-19 04:10N 23°01' W 086°22'  
2019-Jul-16 20:28N 09°36' W 079°57'613.0
2019-Jul-16 20:00N 09°30' W 079°55'713.6
2019-Jul-16 19:30N 09°23' W 079°55'4 8.6
2019-Jul-16 19:00N 09°19' W 079°55'2 4.4
2019-Jul-16 18:30N 09°16' W 079°55'0 0.5
2019-Jul-16 18:00N 09°16' W 079°55'0 0.5
2019-Jul-16 17:30N 09°16' W 079°55'0 0.8
2019-Jul-16 17:00N 09°16' W 079°55'1 1.1
2019-Jul-16 16:30N 09°15' W 079°55'3 5.5
2019-Jul-16 15:58N 09°12' W 079°54'711.5
2019-Jul-16 15:22N 09°08' W 079°49'  
Track history (hours):
 
Tides and Currents Weather Stations Pressure Air Temp Water Temp Dewpoint Dewpoint Depression Visibility Wind Speed Wind Dir Waves Ship Positions

Larkspur

Operator: Transeuropa Lines

Last reported at 2019-Jul-22 14:28 UTC. Time now 2019-Jul-22 14:41 UTC.
Position N 29°12' W 094°34'.

Length 225 m; draft 7.8 m.

Type: Tanker. MMSI: 311000344.

Date/timePositionNaut miles runAvg speedWind from/ knotsBaromVisibWave heightAir tempDewpointWater temp
2019-Jul-22 14:28N 29°12' W 094°34'0 0.3
2019-Jul-22 13:52N 29°12' W 094°34'0 0.1
2019-Jul-22 13:28N 29°12' W 094°34'0 0.2
2019-Jul-22 12:49N 29°12' W 094°34'0 0.1
2019-Jul-22 11:55N 29°12' W 094°34'0 0.0
2019-Jul-22 10:55N 29°12' W 094°34'0 0.0
2019-Jul-22 10:10N 29°12' W 094°34'0 0.0
2019-Jul-22 08:49N 29°12' W 094°34'0 0.0
2019-Jul-22 08:13N 29°12' W 094°34'0 0.0
2019-Jul-22 07:22N 29°12' W 094°34'0 0.0
2019-Jul-22 05:28N 29°12' W 094°34'0 0.0
2019-Jul-22 04:40N 29°12' W 094°34'0 0.0
2019-Jul-22 03:19N 29°12' W 094°34'0 0.0
2019-Jul-21 23:46N 29°12' W 094°34'0 0.0
2019-Jul-21 22:13N 29°12' W 094°34'0 0.0
2019-Jul-21 21:04N 29°12' W 094°34'0 0.0
2019-Jul-21 20:22N 29°12' W 094°34'0 0.1
2019-Jul-21 19:58N 29°12' W 094°34'0 0.2
2019-Jul-21 19:28N 29°12' W 094°34'0 0.1
2019-Jul-21 18:58N 29°12' W 094°34'0 0.2
2019-Jul-21 18:19N 29°12' W 094°34'0 0.1
2019-Jul-21 17:52N 29°12' W 094°34'0 0.0
2019-Jul-21 17:28N 29°12' W 094°34'0 0.1
2019-Jul-21 16:58N 29°12' W 094°34'0 0.1
2019-Jul-21 16:28N 29°12' W 094°34'0 0.0
2019-Jul-21 15:43N 29°12' W 094°34'0 0.0
2019-Jul-21 15:25N 29°12' W 094°34'0 0.0
2019-Jul-21 14:52N 29°12' W 094°34'0 0.0
2019-Jul-21 14:16N 29°12' W 094°34'0 0.1
2019-Jul-21 13:58N 29°12' W 094°34'0 0.0
2019-Jul-21 13:13N 29°12' W 094°34'0 0.0
2019-Jul-21 11:13N 29°12' W 094°34'0 0.0
2019-Jul-21 10:40N 29°12' W 094°34'0 0.0
2019-Jul-21 10:04N 29°12' W 094°34'0 0.2
2019-Jul-21 09:55N 29°12' W 094°34'0 0.1
2019-Jul-21 09:07N 29°12' W 094°34'0 0.0
2019-Jul-21 08:49N 29°12' W 094°34'0 0.0
2019-Jul-21 07:58N 29°12' W 094°34'0 0.0
2019-Jul-21 07:16N 29°12' W 094°34'0 0.0
2019-Jul-21 06:49N 29°12' W 094°34'0 0.0
2019-Jul-21 05:19N 29°12' W 094°34'0 0.2
2019-Jul-21 04:58N 29°12' W 094°34'3 5.7
2019-Jul-21 04:28N 29°14' W 094°32'7 9.8
2019-Jul-21 03:44N 29°10' W 094°25'57012.0
2019-Jul-19 04:10N 23°01' W 086°22'  
2019-Jul-16 20:28N 09°36' W 079°57'613.0
2019-Jul-16 20:00N 09°30' W 079°55'713.6
2019-Jul-16 19:30N 09°23' W 079°55'4 8.6
2019-Jul-16 19:00N 09°19' W 079°55'2 4.4
2019-Jul-16 18:30N 09°16' W 079°55'0 0.5
2019-Jul-16 18:00N 09°16' W 079°55'0 0.5
2019-Jul-16 17:30N 09°16' W 079°55'0 0.8
2019-Jul-16 17:00N 09°16' W 079°55'1 1.1
2019-Jul-16 16:30N 09°15' W 079°55'3 5.5
2019-Jul-16 15:58N 09°12' W 079°54'711.5
2019-Jul-16 15:22N 09°08' W 079°49'  

Dump ship's entire track history